createdAt,value
2022-08-09T00:01:00.189Z,26.90
2022-08-09T00:04:05.506Z,26.70
2022-08-09T00:06:22.698Z,26.90
2022-08-09T00:08:52.186Z,26.90
2022-08-09T00:11:24.667Z,26.70
2022-08-09T00:13:56.788Z,26.70
2022-08-09T00:16:26.499Z,26.60
2022-08-09T00:19:09.418Z,26.60
2022-08-09T00:21:43.130Z,26.60
2022-08-09T00:24:24.923Z,26.60
2022-08-09T00:26:59.732Z,26.70
2022-08-09T00:30:10.206Z,26.70
2022-08-09T00:32:26.871Z,26.80
2022-08-09T00:34:56.451Z,26.80
2022-08-09T00:37:25.434Z,26.80
2022-08-09T00:40:13.363Z,26.80
2022-08-09T00:44:14.503Z,26.80
2022-08-09T00:45:34.911Z,26.70
2022-08-09T00:48:03.705Z,26.60
2022-08-09T00:50:32.286Z,26.60
2022-08-09T00:53:00.750Z,26.60
2022-08-09T00:56:05.304Z,26.60
2022-08-09T00:58:30.539Z,26.50
2022-08-09T01:01:03.313Z,26.60
2022-08-09T01:03:46.381Z,26.50
2022-08-09T01:06:53.457Z,26.50
2022-08-09T01:09:26.288Z,26.50
2022-08-09T01:12:14.047Z,26.70
2022-08-09T01:14:56.818Z,26.80
2022-08-09T01:17:34.114Z,26.90
2022-08-09T01:20:06.675Z,27.00
2022-08-09T01:22:57.688Z,27.10
2022-08-09T01:25:49.011Z,27.20
2022-08-09T01:28:22.568Z,27.40
2022-08-09T01:30:59.066Z,27.60
2022-08-09T01:33:30.430Z,27.70
2022-08-09T01:36:04.223Z,27.80
2022-08-09T01:38:36.875Z,27.80
2022-08-09T01:41:28.474Z,27.80
2022-08-09T01:44:01.596Z,27.70
2022-08-09T01:46:32.567Z,27.70
2022-08-09T01:49:10.508Z,27.40
2022-08-09T01:51:53.987Z,27.10
2022-08-09T01:54:27.795Z,27.00
2022-08-09T01:57:04.030Z,26.80
2022-08-09T01:59:50.918Z,26.50
2022-08-09T02:02:21.883Z,26.30
2022-08-09T02:04:51.963Z,26.30
2022-08-09T02:08:39.590Z,26.20
2022-08-09T02:10:16.398Z,26.20
2022-08-09T02:12:47.888Z,26.30
2022-08-09T02:15:21.629Z,26.50
2022-08-09T02:18:00.908Z,26.60
2022-08-09T02:20:41.977Z,26.80
2022-08-09T02:23:16.991Z,27.00
2022-08-09T02:25:55.964Z,27.20
2022-08-09T02:28:35.668Z,27.40
2022-08-09T02:31:26.380Z,27.50
2022-08-09T02:34:06.318Z,27.70
2022-08-09T02:36:41.997Z,27.80
2022-08-09T02:39:20.051Z,27.90
2022-08-09T02:42:05.685Z,28.00
2022-08-09T02:44:38.374Z,28.00
2022-08-09T02:47:12.985Z,28.00
2022-08-09T02:49:47.007Z,27.80
2022-08-09T02:52:31.039Z,27.80
2022-08-09T02:55:20.138Z,27.80
2022-08-09T02:58:00.646Z,27.60
2022-08-09T03:00:47.744Z,27.50
2022-08-09T03:04:12.591Z,27.50
2022-08-09T03:06:27.869Z,27.50
2022-08-09T03:08:58.291Z,27.30
2022-08-09T03:12:10.460Z,27.30
2022-08-09T03:14:28.120Z,27.30
2022-08-09T03:16:58.439Z,27.30
2022-08-09T03:19:57.775Z,27.30
2022-08-09T03:22:25.503Z,27.30
2022-08-09T03:25:06.481Z,27.30
2022-08-09T03:27:55.504Z,27.10
2022-08-09T03:30:29.580Z,26.90
2022-08-09T03:33:11.059Z,26.80
2022-08-09T03:36:16.605Z,26.60
2022-08-09T03:38:35.368Z,26.30
2022-08-09T03:41:05.726Z,26.40
2022-08-09T03:43:34.053Z,26.40
2022-08-09T03:46:19.953Z,26.40
2022-08-09T03:49:21.351Z,26.60
2022-08-09T03:52:00.076Z,26.80
2022-08-09T03:54:32.864Z,27.00
2022-08-09T03:57:18.369Z,27.10
2022-08-09T03:59:54.375Z,27.20
2022-08-09T04:02:28.403Z,27.20
2022-08-09T04:04:59.201Z,27.30
2022-08-09T04:07:47.695Z,27.30
2022-08-09T04:10:28.377Z,27.30
2022-08-09T04:13:04.389Z,27.20
2022-08-09T04:15:52.240Z,27.20
2022-08-09T04:18:21.753Z,27.20
2022-08-09T04:20:51.470Z,27.30
2022-08-09T04:23:24.760Z,27.50
2022-08-09T04:25:54.270Z,27.60
2022-08-09T04:28:32.903Z,27.60
2022-08-09T04:31:08.168Z,27.70
2022-08-09T04:33:57.102Z,27.70
2022-08-09T04:36:43.629Z,27.70
2022-08-09T04:39:19.767Z,27.70
2022-08-09T04:41:48.377Z,27.80
2022-08-09T04:44:17.652Z,27.90
2022-08-09T04:46:59.453Z,27.90
2022-08-09T04:49:53.296Z,27.90
2022-08-09T04:52:26.991Z,27.90
2022-08-09T04:54:59.333Z,27.90
2022-08-09T04:57:54.338Z,27.90
2022-08-09T05:00:17.168Z,28.00
2022-08-09T05:02:48.704Z,27.90
2022-08-09T05:05:31.965Z,28.00
2022-08-09T05:08:09.075Z,28.00
2022-08-09T05:10:38.563Z,28.10
2022-08-09T05:13:06.807Z,28.00
2022-08-09T05:15:47.682Z,28.10
2022-08-09T05:18:42.481Z,28.00
2022-08-09T05:21:13.364Z,28.10
2022-08-09T05:24:01.029Z,28.00
2022-08-09T05:26:53.670Z,27.90
2022-08-09T05:29:24.556Z,27.90
2022-08-09T05:32:01.217Z,27.90
2022-08-09T05:34:31.893Z,27.60
2022-08-09T05:37:04.838Z,27.20
2022-08-09T05:39:36.309Z,26.60
2022-08-09T05:42:17.793Z,26.20
2022-08-09T05:44:51.456Z,26.00
2022-08-09T05:47:21.729Z,25.70
2022-08-09T05:50:31.799Z,25.40
2022-08-09T05:52:42.067Z,25.10
2022-08-09T05:55:18.239Z,25.30
2022-08-09T05:57:57.053Z,25.50
2022-08-09T06:00:28.764Z,25.80
2022-08-09T06:02:58.171Z,26.20
2022-08-09T06:05:49.910Z,26.50
2022-08-09T06:08:19.534Z,26.70
2022-08-09T06:10:53.821Z,27.00
2022-08-09T06:13:24.073Z,27.20
2022-08-09T06:15:53.164Z,27.30
2022-08-09T06:18:24.799Z,27.30
2022-08-09T06:20:57.332Z,27.40
2022-08-09T06:23:55.626Z,27.40
2022-08-09T06:26:23.039Z,27.50
2022-08-09T06:29:00.368Z,27.60
2022-08-09T06:31:39.266Z,27.60
2022-08-09T06:34:23.250Z,27.60
2022-08-09T06:36:59.574Z,27.60
2022-08-09T06:39:48.689Z,27.60
2022-08-09T06:42:19.797Z,27.60
2022-08-09T06:44:54.357Z,27.60
2022-08-09T06:47:23.596Z,27.60
2022-08-09T06:50:14.605Z,27.70
2022-08-09T06:52:47.017Z,27.70
2022-08-09T06:55:16.196Z,27.70
2022-08-09T06:58:02.938Z,27.80
2022-08-09T07:00:51.082Z,27.80
2022-08-09T07:03:28.005Z,27.80
2022-08-09T07:06:03.756Z,27.80
2022-08-09T07:08:34.496Z,27.90
2022-08-09T07:11:04.343Z,27.90
2022-08-09T07:13:45.506Z,28.00
2022-08-09T07:16:43.207Z,28.00
2022-08-09T07:19:23.052Z,27.90
2022-08-09T07:21:56.938Z,27.90
2022-08-09T07:24:32.286Z,27.90
2022-08-09T07:27:24.011Z,27.80
2022-08-09T07:29:58.398Z,27.80
2022-08-09T07:32:32.157Z,27.80
2022-08-09T07:35:00.941Z,27.90
2022-08-09T07:37:31.095Z,27.80
2022-08-09T07:40:17.173Z,27.80
2022-08-09T07:43:06.999Z,27.80
2022-08-09T07:45:42.986Z,27.80
2022-08-09T07:48:28.530Z,27.90
2022-08-09T07:51:10.171Z,27.90
2022-08-09T07:54:14.542Z,28.00
2022-08-09T07:56:49.597Z,27.90
2022-08-09T07:59:33.855Z,27.90
2022-08-09T08:02:08.920Z,27.90
2022-08-09T08:04:39.039Z,27.90
2022-08-09T08:07:15.507Z,27.90
2022-08-09T08:10:08.364Z,28.00
2022-08-09T08:12:45.647Z,28.00
2022-08-09T08:15:17.287Z,28.00
2022-08-09T08:17:53.942Z,28.00
2022-08-09T08:20:28.506Z,28.00
2022-08-09T08:23:01.382Z,28.00
2022-08-09T08:25:43.827Z,28.10
2022-08-09T08:28:14.412Z,28.00
2022-08-09T08:30:43.875Z,28.10
2022-08-09T08:33:24.409Z,28.20
2022-08-09T08:35:59.089Z,28.30
2022-08-09T08:38:29.297Z,28.40
2022-08-09T08:40:59.162Z,28.50
2022-08-09T08:43:28.074Z,28.40
2022-08-09T08:46:03.795Z,28.40
2022-08-09T08:49:19.172Z,28.30
2022-08-09T08:52:01.656Z,28.40
2022-08-09T08:54:32.455Z,28.40
2022-08-09T08:57:04.967Z,28.40
2022-08-09T08:59:47.048Z,28.50
2022-08-09T09:06:18.507Z,28.40
2022-08-09T09:08:52.329Z,28.30
2022-08-09T09:11:21.846Z,28.30
2022-08-09T09:13:57.620Z,28.40
2022-08-09T09:16:30.572Z,28.40
2022-08-09T09:19:37.847Z,28.40
2022-08-09T09:22:05.449Z,28.40
2022-08-09T09:24:39.811Z,28.40
2022-08-09T09:28:04.525Z,28.30
2022-08-09T09:30:28.807Z,28.30
2022-08-09T09:33:15.525Z,28.20
2022-08-09T09:36:01.486Z,28.30
2022-08-09T09:38:46.754Z,28.30
2022-08-09T09:41:33.251Z,28.30
2022-08-09T09:44:25.920Z,28.30
2022-08-09T09:47:08.399Z,28.40
2022-08-09T09:50:13.344Z,28.30
2022-08-09T09:52:36.550Z,28.40
2022-08-09T09:55:28.532Z,28.50
2022-08-09T09:58:18.871Z,28.50
2022-08-09T10:00:52.628Z,28.50
2022-08-09T10:03:44.248Z,28.50
2022-08-09T10:06:14.022Z,28.40
2022-08-09T10:08:55.083Z,28.30
2022-08-09T10:11:59.350Z,28.30
2022-08-09T10:14:30.602Z,28.40
2022-08-09T10:17:40.276Z,28.50
2022-08-09T10:19:59.749Z,28.60
2022-08-09T10:22:36.654Z,28.70
2022-08-09T10:25:12.406Z,28.70
2022-08-09T10:27:45.111Z,28.80
2022-08-09T10:34:04.327Z,28.70
2022-08-09T10:36:12.264Z,28.70
2022-08-09T10:38:56.173Z,28.70
2022-08-09T10:41:28.410Z,28.70
2022-08-09T10:44:00.000Z,28.80
2022-08-09T10:46:57.339Z,28.80
2022-08-09T10:49:51.007Z,28.80
2022-08-09T10:52:45.110Z,28.70
2022-08-09T10:55:24.910Z,28.60
2022-08-09T10:57:55.674Z,28.70
2022-08-09T11:00:41.822Z,28.80
2022-08-09T11:03:51.531Z,29.00
2022-08-09T11:06:26.672Z,29.10
2022-08-09T11:09:15.363Z,29.20
2022-08-09T11:12:17.775Z,29.30
2022-08-09T11:14:48.736Z,29.40
2022-08-09T11:18:03.039Z,29.40
2022-08-09T11:20:47.560Z,29.30
2022-08-09T11:23:23.910Z,29.00
2022-08-09T11:26:00.154Z,28.90
2022-08-09T11:28:38.281Z,28.80
2022-08-09T11:31:49.308Z,28.80
2022-08-09T11:34:28.622Z,28.80
2022-08-09T11:37:00.823Z,28.80
2022-08-09T11:39:38.088Z,28.80
2022-08-09T11:42:14.892Z,28.80
2022-08-09T11:44:48.426Z,28.80
2022-08-09T11:47:17.153Z,28.80
2022-08-09T11:50:52.306Z,28.80
2022-08-09T11:53:59.407Z,28.90
2022-08-09T11:56:41.596Z,28.90
2022-08-09T11:59:29.955Z,28.80
2022-08-09T12:02:34.354Z,28.80
2022-08-09T12:04:47.665Z,28.80
2022-08-09T12:07:19.080Z,28.80
2022-08-09T12:09:50.569Z,28.80
2022-08-09T12:12:20.444Z,28.70
2022-08-09T12:15:07.911Z,28.70
2022-08-09T12:17:44.806Z,28.80
2022-08-09T12:20:16.468Z,28.80
2022-08-09T12:22:50.866Z,28.90
2022-08-09T12:25:35.854Z,29.00
2022-08-09T12:29:11.816Z,29.10
2022-08-09T12:31:01.545Z,29.20
2022-08-09T12:33:51.478Z,29.30
2022-08-09T12:36:31.334Z,29.40
2022-08-09T12:39:01.629Z,29.50
2022-08-09T12:41:39.575Z,29.60
2022-08-09T12:44:09.778Z,29.60
2022-08-09T12:46:48.859Z,29.70
2022-08-09T12:49:19.099Z,29.70
2022-08-09T12:52:02.511Z,29.70
2022-08-09T12:54:47.714Z,29.80
2022-08-09T12:57:41.701Z,29.90
2022-08-09T13:00:18.927Z,29.90
2022-08-09T13:02:55.823Z,30.00
2022-08-09T13:05:26.425Z,30.00
2022-08-09T13:08:15.333Z,30.00
2022-08-09T13:10:52.123Z,30.00
2022-08-09T13:13:37.959Z,30.00
2022-08-09T13:16:21.333Z,30.00
2022-08-09T13:18:54.033Z,30.10
2022-08-09T13:22:45.539Z,30.10
2022-08-09T13:24:42.534Z,30.10
2022-08-09T13:27:05.945Z,30.20
2022-08-09T13:30:02.814Z,30.20
2022-08-09T13:32:35.838Z,30.30
2022-08-09T13:35:06.873Z,30.30
2022-08-09T13:37:52.008Z,30.30
2022-08-09T13:41:54.254Z,30.30
2022-08-09T13:43:09.901Z,30.40
2022-08-09T13:46:42.639Z,30.40
2022-08-09T13:48:33.181Z,30.30
2022-08-09T13:51:03.931Z,30.30
2022-08-09T13:53:43.014Z,30.30
2022-08-09T13:56:12.700Z,30.30
2022-08-09T13:58:40.909Z,30.40
2022-08-09T14:01:13.443Z,30.50
2022-08-09T14:04:04.897Z,30.50
2022-08-09T14:06:36.918Z,30.40
2022-08-09T14:09:09.205Z,30.60
2022-08-09T14:11:47.029Z,30.60
2022-08-09T14:14:25.856Z,30.60
2022-08-09T14:16:57.136Z,30.60
2022-08-09T14:19:27.218Z,30.60
2022-08-09T14:22:01.841Z,30.60
2022-08-09T14:24:32.331Z,30.70
2022-08-09T14:27:02.286Z,30.70
2022-08-09T14:30:35.124Z,30.70
2022-08-09T14:32:30.763Z,30.70
2022-08-09T14:35:08.547Z,30.80
2022-08-09T14:37:41.268Z,30.70
2022-08-09T14:40:37.996Z,30.50
2022-08-09T14:43:18.597Z,30.30
2022-08-09T14:46:46.692Z,30.10
2022-08-09T14:48:36.689Z,30.10
2022-08-09T14:51:09.294Z,30.00
2022-08-09T14:53:39.032Z,29.90
2022-08-09T14:56:08.613Z,29.80
2022-08-09T14:58:44.011Z,29.70
2022-08-09T15:01:12.863Z,29.70
2022-08-09T15:03:43.081Z,29.70
2022-08-09T15:06:12.395Z,29.80
2022-08-09T15:08:43.285Z,29.80
2022-08-09T15:11:11.495Z,29.90
2022-08-09T15:13:48.592Z,29.80
2022-08-09T15:16:30.368Z,29.80
2022-08-09T15:19:05.641Z,29.90
2022-08-09T15:21:58.459Z,30.00
2022-08-09T15:24:29.342Z,30.10
2022-08-09T15:26:57.916Z,30.20
2022-08-09T15:30:48.517Z,30.30
2022-08-09T15:32:28.852Z,30.40
2022-08-09T15:35:18.595Z,30.40
2022-08-09T15:37:56.581Z,30.30
2022-08-09T15:40:43.802Z,30.30
2022-08-09T15:43:13.416Z,30.30
2022-08-09T15:46:07.287Z,30.40
2022-08-09T15:48:32.159Z,30.40
2022-08-09T15:51:30.096Z,30.50
2022-08-09T15:54:04.443Z,30.50
2022-08-09T15:56:40.406Z,30.50
2022-08-09T15:59:08.965Z,30.50
2022-08-09T16:01:37.305Z,30.50
2022-08-09T16:04:05.744Z,30.50
2022-08-09T16:06:44.681Z,30.50
2022-08-09T16:09:18.712Z,30.40
2022-08-09T16:12:01.491Z,30.50
2022-08-09T16:14:31.479Z,30.50
2022-08-09T16:17:00.885Z,30.40
2022-08-09T16:19:29.086Z,30.40
2022-08-09T16:22:06.223Z,30.40
2022-08-09T16:24:43.067Z,30.40
2022-08-09T16:27:11.239Z,30.30
2022-08-09T16:29:49.648Z,30.30
2022-08-09T16:32:43.461Z,30.30
2022-08-09T16:35:07.912Z,30.20
2022-08-09T16:37:55.904Z,30.30
2022-08-09T16:40:39.797Z,30.30
2022-08-09T16:43:09.759Z,30.30
2022-08-09T16:45:44.182Z,30.40
2022-08-09T16:48:40.517Z,30.40
2022-08-09T16:51:07.962Z,30.30
2022-08-09T16:53:56.342Z,30.40
2022-08-09T16:56:27.042Z,30.30
2022-08-09T16:58:59.329Z,30.30
2022-08-09T17:01:33.863Z,30.20
2022-08-09T17:04:03.564Z,30.00
2022-08-09T17:07:10.064Z,30.00
2022-08-09T17:09:45.671Z,29.90
2022-08-09T17:12:11.472Z,29.90
2022-08-09T17:14:39.711Z,29.80
2022-08-09T17:17:26.941Z,29.80
2022-08-09T17:20:32.782Z,29.70
2022-08-09T17:22:51.987Z,29.70
2022-08-09T17:25:23.471Z,29.70
2022-08-09T17:27:54.659Z,29.70
2022-08-09T17:30:26.114Z,29.70
2022-08-09T17:33:00.964Z,29.80
2022-08-09T17:35:34.980Z,29.80
2022-08-09T17:38:14.574Z,29.80
2022-08-09T17:40:53.073Z,29.70
2022-08-09T17:43:34.641Z,29.60
2022-08-09T17:46:09.307Z,29.60
2022-08-09T17:48:40.545Z,29.50
2022-08-09T17:51:21.073Z,29.50
2022-08-09T17:53:53.318Z,29.50
2022-08-09T17:56:28.778Z,29.50
2022-08-09T17:58:59.461Z,29.60
2022-08-09T18:02:03.572Z,29.60
2022-08-09T18:04:17.755Z,29.50
2022-08-09T18:06:54.361Z,29.50
2022-08-09T18:09:35.889Z,29.50
2022-08-09T18:12:17.599Z,29.50
2022-08-09T18:14:49.900Z,29.50
2022-08-09T18:17:27.501Z,29.50
2022-08-09T18:20:54.253Z,29.60
2022-08-09T18:22:59.850Z,29.60
2022-08-09T18:25:52.517Z,29.70
2022-08-09T18:30:35.528Z,29.70
2022-08-09T18:31:13.902Z,29.70
2022-08-09T18:33:46.325Z,29.80
2022-08-09T18:36:26.116Z,29.80
2022-08-09T18:39:02.921Z,29.80
2022-08-09T18:41:34.545Z,29.90
2022-08-09T18:44:12.556Z,29.90
2022-08-09T18:46:47.038Z,29.90
2022-08-09T18:49:31.857Z,29.90
2022-08-09T18:52:00.724Z,29.90
2022-08-09T18:54:29.685Z,29.90
2022-08-09T18:57:06.364Z,29.80
2022-08-09T18:59:48.691Z,29.80
2022-08-09T19:02:20.595Z,29.80
2022-08-09T19:05:03.646Z,29.80
2022-08-09T19:07:40.480Z,29.80
2022-08-09T19:10:16.835Z,29.80
2022-08-09T19:12:50.568Z,29.70
2022-08-09T19:15:31.262Z,29.70
2022-08-09T19:17:59.531Z,29.60
2022-08-09T19:20:34.079Z,29.60
2022-08-09T19:23:06.523Z,29.60
2022-08-09T19:26:00.915Z,29.50
2022-08-09T19:28:28.776Z,29.60
2022-08-09T19:30:58.714Z,29.60
2022-08-09T19:33:28.193Z,29.50
2022-08-09T19:35:58.936Z,29.60
2022-08-09T19:38:28.045Z,29.60
2022-08-09T19:40:59.740Z,29.70
2022-08-09T19:44:00.459Z,29.80
2022-08-09T19:46:35.195Z,29.80
2022-08-09T19:50:07.061Z,29.90
2022-08-09T19:51:55.536Z,29.60
2022-08-09T19:54:25.342Z,29.50
2022-08-09T19:56:53.797Z,29.30
2022-08-09T19:59:57.033Z,29.10
2022-08-09T20:04:12.277Z,29.00
2022-08-09T20:05:02.444Z,28.90
2022-08-09T20:07:59.835Z,29.00
2022-08-09T20:10:28.008Z,29.00
2022-08-09T20:13:06.182Z,29.00
2022-08-09T20:16:36.156Z,28.90
2022-08-09T20:18:28.018Z,28.90
2022-08-09T20:20:56.825Z,28.90
2022-08-09T20:23:39.338Z,28.90
2022-08-09T20:26:09.922Z,28.90
2022-08-09T20:28:48.021Z,29.00
2022-08-09T20:31:17.288Z,28.90
2022-08-09T20:33:46.947Z,29.00
2022-08-09T20:36:27.168Z,29.10
2022-08-09T20:39:17.192Z,29.10
2022-08-09T20:41:44.431Z,29.20
2022-08-09T20:44:17.214Z,29.20
2022-08-09T20:46:55.205Z,29.10
2022-08-09T20:49:28.581Z,29.00
2022-08-09T20:51:57.677Z,28.90
2022-08-09T20:54:29.108Z,28.90
2022-08-09T20:56:58.323Z,28.80
2022-08-09T21:00:19.407Z,28.70
2022-08-09T21:02:18.577Z,28.70
2022-08-09T21:05:56.870Z,28.70
2022-08-09T21:07:40.688Z,28.70
2022-08-09T21:10:12.651Z,28.70
2022-08-09T21:15:34.759Z,28.70
2022-08-09T21:18:23.693Z,28.60
2022-08-09T21:20:55.970Z,28.60
2022-08-09T21:23:26.610Z,28.70
2022-08-09T21:26:12.934Z,28.70
2022-08-09T21:28:55.497Z,28.70
2022-08-09T21:31:24.293Z,28.70
2022-08-09T21:34:12.634Z,28.80
2022-08-09T21:36:55.215Z,28.80
2022-08-09T21:39:27.935Z,28.90
2022-08-09T21:42:05.815Z,29.10
2022-08-09T21:44:38.228Z,29.10
2022-08-09T21:47:09.346Z,29.10
2022-08-09T21:49:40.541Z,29.10
2022-08-09T21:52:17.999Z,29.10
2022-08-09T21:55:03.503Z,29.10
2022-08-09T21:57:38.551Z,29.00
2022-08-09T22:00:25.217Z,29.00
2022-08-09T22:02:59.005Z,28.90
2022-08-09T22:05:35.727Z,29.00
2022-08-09T22:08:13.705Z,28.90
2022-08-09T22:11:05.082Z,28.90
2022-08-09T22:13:35.489Z,28.90
2022-08-09T22:16:09.206Z,28.80
2022-08-09T22:18:53.040Z,28.90
2022-08-09T22:21:27.439Z,28.80
2022-08-09T22:24:17.181Z,28.70
2022-08-09T22:26:51.726Z,28.60
2022-08-09T22:29:24.091Z,28.60
2022-08-09T22:31:57.977Z,28.60
2022-08-09T22:34:26.992Z,28.60
2022-08-09T22:36:55.980Z,28.60
2022-08-09T22:39:56.060Z,28.50
2022-08-09T22:42:21.221Z,28.50
2022-08-09T22:48:04.903Z,28.40
2022-08-09T22:48:16.012Z,28.40
2022-08-09T22:50:29.658Z,28.40
2022-08-09T22:52:58.711Z,28.40
2022-08-09T22:55:39.767Z,28.40
2022-08-09T22:58:20.357Z,28.40
2022-08-09T23:01:04.801Z,28.40
2022-08-09T23:04:04.302Z,28.30
2022-08-09T23:06:35.204Z,28.30
2022-08-09T23:09:06.410Z,28.30
2022-08-09T23:11:36.264Z,28.30
2022-08-09T23:14:10.174Z,28.30
2022-08-09T23:16:45.448Z,28.20
2022-08-09T23:19:13.661Z,28.20
2022-08-09T23:21:41.947Z,28.20
2022-08-09T23:24:10.866Z,28.20
2022-08-09T23:26:40.921Z,28.20
2022-08-09T23:29:13.574Z,28.20
2022-08-09T23:31:42.137Z,28.20
2022-08-09T23:34:10.385Z,28.20
2022-08-09T23:36:38.618Z,28.20
2022-08-09T23:39:09.646Z,28.20
2022-08-09T23:41:38.007Z,28.30
2022-08-09T23:44:07.731Z,28.30
2022-08-09T23:46:35.905Z,28.30
2022-08-09T23:49:04.536Z,28.30
2022-08-09T23:51:32.787Z,28.30
2022-08-09T23:54:02.450Z,28.20
2022-08-09T23:56:52.370Z,28.20
2022-08-09T23:59:22.701Z,28.20
